Time;durP1;ratioP1;P1;durP2;ratioP2;P2;SDS_P1;SDS_P2;PMS_P1;PMS_P2;Temp;Humidity;BMP_temperature;BMP_pressure;BME280_temperature;BME280_humidity;BME280_pressure;Samples;Min_cycle;Max_cycle;Signal;HPM_P1;HPM_P2
2022/11/16 00:01:12;;;;;;;6.33;5.37;;;;;;;;;;4977062;28;20358;-62
2022/11/16 00:03:40;;;;;;;8.57;5.87;;;;;;;;;;4973344;28;20291;-62
2022/11/16 00:06:07;;;;;;;5.87;5.33;;;;;;;;;;4983859;28;20299;-62
2022/11/16 00:08:36;;;;;;;7.03;5.43;;;;;;;;;;4964957;28;20686;-62
2022/11/16 00:11:12;;;;;;;5.67;5.07;;;;;;;;;;4971507;28;20220;-63
2022/11/16 00:13:40;;;;;;;7.50;5.43;;;;;;;;;;4968028;28;20242;-62
2022/11/16 00:16:08;;;;;;;5.60;5.03;;;;;;;;;;4988997;28;20204;-64
2022/11/16 00:18:35;;;;;;;6.63;5.20;;;;;;;;;;4968502;28;20201;-61
2022/11/16 00:21:04;;;;;;;6.60;5.23;;;;;;;;;;4970648;28;20822;-62
2022/11/16 00:23:31;;;;;;;4.67;4.27;;;;;;;;;;4981525;28;20294;-61
2022/11/16 00:26:03;;;;;;;5.17;4.33;;;;;;;;;;4992334;28;20214;-62
2022/11/16 00:28:30;;;;;;;4.43;3.40;;;;;;;;;;4988767;28;20302;-61
2022/11/16 00:30:59;;;;;;;3.43;3.13;;;;;;;;;;5007479;28;20354;-62
2022/11/16 00:33:27;;;;;;;3.23;2.93;;;;;;;;;;4969397;28;20638;-63
2022/11/16 00:35:54;;;;;;;3.17;2.87;;;;;;;;;;4963307;28;20245;-61
2022/11/16 00:38:22;;;;;;;3.83;3.00;;;;;;;;;;4961941;28;20217;-62
2022/11/16 00:40:49;;;;;;;3.20;2.90;;;;;;;;;;4971923;28;20217;-61
2022/11/16 00:43:17;;;;;;;4.03;3.20;;;;;;;;;;4963370;28;20217;-62
2022/11/16 00:45:44;;;;;;;16.13;11.63;;;;;;;;;;4973137;28;20655;-61
2022/11/16 00:48:12;;;;;;;9.40;6.93;;;;;;;;;;4962698;28;20338;-63
2022/11/16 00:50:39;;;;;;;7.30;5.90;;;;;;;;;;4960659;28;20295;-63
2022/11/16 00:53:07;;;;;;;4.57;4.17;;;;;;;;;;4983819;28;20216;-62
2022/11/16 00:55:35;;;;;;;4.33;3.67;;;;;;;;;;4962250;28;20234;-62
2022/11/16 00:58:03;;;;;;;18.60;12.27;;;;;;;;;;4984565;28;21283;-62
2022/11/16 01:00:30;;;;;;;7.83;6.03;;;;;;;;;;4963097;28;20246;-63
2022/11/16 01:02:58;;;;;;;6.20;5.60;;;;;;;;;;4965791;28;20235;-61
2022/11/16 01:05:25;;;;;;;6.43;5.37;;;;;;;;;;4962393;28;20215;-63
2022/11/16 01:07:53;;;;;;;6.13;4.60;;;;;;;;;;4967783;28;20238;-62
2022/11/16 01:10:21;;;;;;;5.27;4.43;;;;;;;;;;4964972;28;20257;-63
2022/11/16 01:12:49;;;;;;;6.97;6.27;;;;;;;;;;4968833;28;20318;-62
2022/11/16 01:15:17;;;;;;;6.30;5.70;;;;;;;;;;4952862;28;20355;-62
2022/11/16 01:17:45;;;;;;;8.00;6.30;;;;;;;;;;4960214;28;20334;-63
2022/11/16 01:20:14;;;;;;;6.40;5.80;;;;;;;;;;4966552;28;20199;-62
2022/11/16 01:22:42;;;;;;;6.13;4.80;;;;;;;;;;4965418;28;20334;-63
2022/11/16 01:25:10;;;;;;;5.43;4.67;;;;;;;;;;4968490;28;20231;-62
2022/11/16 01:27:37;;;;;;;5.67;4.20;;;;;;;;;;4965332;28;20216;-63
2022/11/16 01:30:06;;;;;;;4.53;4.10;;;;;;;;;;4967452;28;20294;-63
2022/11/16 01:32:33;;;;;;;5.47;4.03;;;;;;;;;;4966956;28;20278;-63
2022/11/16 01:35:01;;;;;;;4.53;3.83;;;;;;;;;;4956733;28;20238;-62
2022/11/16 01:37:29;;;;;;;5.03;3.80;;;;;;;;;;4963218;28;20287;-63
2022/11/16 01:39:56;;;;;;;4.23;3.67;;;;;;;;;;4964885;28;20293;-61
2022/11/16 01:42:25;;;;;;;5.07;4.47;;;;;;;;;;4964299;28;20231;-62
2022/11/16 01:44:58;;;;;;;6.83;4.83;;;;;;;;;;4967929;28;20222;-62
2022/11/16 01:47:25;;;;;;;4.80;4.30;;;;;;;;;;4960075;28;20613;-63
2022/11/16 01:49:54;;;;;;;5.40;4.30;;;;;;;;;;4983066;28;20346;-62
2022/11/16 01:52:24;;;;;;;4.53;4.13;;;;;;;;;;4962430;28;20236;-62
2022/11/16 01:54:53;;;;;;;5.90;5.40;;;;;;;;;;4963197;28;20385;-63
2022/11/16 01:57:25;;;;;;;12.73;11.43;;;;;;;;;;4958870;28;20294;-63
2022/11/16 01:59:55;;;;;;;5.03;4.27;;;;;;;;;;4963261;28;20628;-62
2022/11/16 02:02:22;;;;;;;4.23;3.40;;;;;;;;;;4961611;28;20315;-62
2022/11/16 02:04:51;;;;;;;3.53;3.07;;;;;;;;;;4969455;28;20226;-62
2022/11/16 02:07:19;;;;;;;4.50;2.93;;;;;;;;;;4954823;28;20218;-62
2022/11/16 02:10:09;;;;;;;4.63;3.67;;;;;;;;;;4962837;28;20228;-62
2022/11/16 02:12:43;;;;;;;7.30;5.80;;;;;;;;;;4964643;28;20227;-62
2022/11/16 02:15:26;;;;;;;5.37;4.70;;;;;;;;;;4962875;28;20365;-62
2022/11/16 02:18:02;;;;;;;5.10;3.87;;;;;;;;;;4958434;28;21236;-63
2022/11/16 02:20:29;;;;;;;3.47;2.70;;;;;;;;;;4962458;28;20471;-63
2022/11/16 02:23:01;;;;;;;2.53;1.97;;;;;;;;;;4975094;28;20599;-62
2022/11/16 02:25:29;;;;;;;2.40;2.20;;;;;;;;;;4984099;28;20672;-62
2022/11/16 02:28:08;;;;;;;1.90;1.80;;;;;;;;;;5003022;28;20294;-63
2022/11/16 02:30:36;;;;;;;2.57;1.70;;;;;;;;;;4986522;28;20640;-62
2022/11/16 02:33:16;;;;;;;1.80;1.70;;;;;;;;;;4980576;28;20286;-63
2022/11/16 02:35:45;;;;;;;1.93;1.83;;;;;;;;;;4967722;28;20219;-63
2022/11/16 02:38:16;;;;;;;2.23;2.10;;;;;;;;;;4964048;28;21122;-63
2022/11/16 02:40:46;;;;;;;2.53;1.70;;;;;;;;;;4976470;28;20199;-63
2022/11/16 02:43:16;;;;;;;1.90;1.70;;;;;;;;;;4967392;28;20223;-62
2022/11/16 02:45:45;;;;;;;1.70;1.60;;;;;;;;;;4955949;28;20223;-62
2022/11/16 02:48:14;;;;;;;2.40;2.20;;;;;;;;;;4966153;28;20216;-62
2022/11/16 02:50:42;;;;;;;1.90;1.80;;;;;;;;;;4961930;28;20221;-61
2022/11/16 02:53:10;;;;;;;2.00;1.80;;;;;;;;;;4959475;28;20582;-61
2022/11/16 02:55:37;;;;;;;3.10;2.03;;;;;;;;;;4968747;28;20227;-63
2022/11/16 02:58:06;;;;;;;2.20;2.00;;;;;;;;;;4965756;28;20206;-61
2022/11/16 03:00:52;;;;;;;2.00;1.80;;;;;;;;;;4963452;28;20239;-61
2022/11/16 03:03:38;;;;;;;2.00;1.90;;;;;;;;;;4964278;28;20281;-62
2022/11/16 03:06:28;;;;;;;2.47;2.00;;;;;;;;;;4979635;28;20431;-63
2022/11/16 03:09:04;;;;;;;2.23;2.03;;;;;;;;;;4959821;28;20215;-63
2022/11/16 03:14:22;;;;;;;1.93;1.80;;;;;;;;;;4983814;28;20212;-63
2022/11/16 03:16:52;;;;;;;1.87;1.70;;;;;;;;;;4962719;28;20294;-61
2022/11/16 03:19:22;;;;;;;1.50;1.40;;;;;;;;;;4980840;28;20656;-63
2022/11/16 03:21:51;;;;;;;2.03;1.83;;;;;;;;;;4961554;28;20224;-63
2022/11/16 03:24:19;;;;;;;2.27;1.80;;;;;;;;;;4965608;28;20204;-62
2022/11/16 03:27:00;;;;;;;1.80;1.70;;;;;;;;;;4969949;28;21156;-62
2022/11/16 03:29:28;;;;;;;1.73;1.63;;;;;;;;;;4971663;28;20630;-63
2022/11/16 03:31:58;;;;;;;1.90;1.80;;;;;;;;;;4970406;28;20228;-63
2022/11/16 03:34:29;;;;;;;1.57;1.47;;;;;;;;;;4985989;28;20291;-62
2022/11/16 03:36:57;;;;;;;1.80;1.70;;;;;;;;;;4984528;28;20203;-63
2022/11/16 03:39:28;;;;;;;2.70;2.40;;;;;;;;;;4988524;28;20207;-63
2022/11/16 03:41:56;;;;;;;1.73;1.63;;;;;;;;;;4989082;28;20277;-62
2022/11/16 03:44:24;;;;;;;2.20;2.00;;;;;;;;;;4969337;28;20203;-63
2022/11/16 03:46:52;;;;;;;1.90;1.80;;;;;;;;;;4963449;28;21571;-63
2022/11/16 03:49:22;;;;;;;2.10;1.90;;;;;;;;;;4963216;28;20214;-61
2022/11/16 03:51:50;;;;;;;1.80;1.70;;;;;;;;;;4969155;28;20309;-62
2022/11/16 03:54:18;;;;;;;2.70;1.60;;;;;;;;;;4964652;28;20212;-63
2022/11/16 03:56:46;;;;;;;2.03;1.93;;;;;;;;;;4977932;28;20231;-63
2022/11/16 03:59:13;;;;;;;3.27;1.70;;;;;;;;;;4969245;28;20626;-61
2022/11/16 04:01:40;;;;;;;1.90;1.80;;;;;;;;;;4964402;28;20721;-63
2022/11/16 04:24:10;;;;;;;2.20;2.10;;;;;;;;;;4968938;28;20208;-63
2022/11/16 04:28:11;;;;;;;5.20;4.70;;;;;;;;;;4997107;28;20689;-63
2022/11/16 04:29:09;;;;;;;5.87;4.77;;;;;;;;;;5002546;28;20294;-62
2022/11/16 04:39:57;;;;;;;6.77;6.07;;;;;;;;;;4981073;28;20214;-62
2022/11/16 04:42:24;;;;;;;6.27;5.67;;;;;;;;;;4965461;28;20229;-63
2022/11/16 04:47:37;;;;;;;7.13;6.13;;;;;;;;;;4987393;28;20204;-63
2022/11/16 04:50:05;;;;;;;7.03;5.60;;;;;;;;;;4961899;28;20214;-61
2022/11/16 04:52:36;;;;;;;6.60;6.00;;;;;;;;;;4988274;28;20223;-63
2022/11/16 04:55:03;;;;;;;6.47;5.80;;;;;;;;;;4965631;28;20687;-63
2022/11/16 04:57:30;;;;;;;6.53;5.90;;;;;;;;;;4966917;28;20210;-63
2022/11/16 04:59:58;;;;;;;7.43;6.70;;;;;;;;;;4965781;28;20235;-61
2022/11/16 05:02:25;;;;;;;9.03;6.63;;;;;;;;;;4969078;28;20246;-63
2022/11/16 05:04:52;;;;;;;6.40;5.73;;;;;;;;;;4957554;28;32296;-63
2022/11/16 05:07:20;;;;;;;7.27;5.90;;;;;;;;;;4965086;28;20207;-62
2022/11/16 05:09:48;;;;;;;7.17;6.47;;;;;;;;;;4972549;28;20219;-63
2022/11/16 05:12:23;;;;;;;6.87;6.17;;;;;;;;;;4964425;28;20317;-61
2022/11/16 05:14:50;;;;;;;6.80;6.10;;;;;;;;;;4967695;28;20307;-62
2022/11/16 05:17:18;;;;;;;6.97;6.27;;;;;;;;;;4974603;28;20307;-63
2022/11/16 05:22:32;;;;;;;8.10;6.77;;;;;;;;;;4975151;28;20224;-63
2022/11/16 05:24:59;;;;;;;8.90;6.50;;;;;;;;;;4962210;28;20210;-63
2022/11/16 05:27:28;;;;;;;10.50;9.40;;;;;;;;;;4961863;28;20690;-62
2022/11/16 05:29:56;;;;;;;10.93;9.63;;;;;;;;;;4976368;28;20207;-61
2022/11/16 05:32:24;;;;;;;13.93;10.77;;;;;;;;;;4987321;28;20656;-63
2022/11/16 05:34:51;;;;;;;10.27;9.03;;;;;;;;;;4989398;28;20200;-60
2022/11/16 05:37:19;;;;;;;17.07;14.80;;;;;;;;;;4983755;28;20571;-63
2022/11/16 05:39:47;;;;;;;7.70;6.90;;;;;;;;;;4985040;28;20286;-62
2022/11/16 05:42:15;;;;;;;7.20;6.40;;;;;;;;;;4990415;28;20252;-63
2022/11/16 05:44:42;;;;;;;7.00;6.40;;;;;;;;;;4984914;28;20540;-62
2022/11/16 05:47:10;;;;;;;7.03;6.43;;;;;;;;;;4965278;28;20212;-63
2022/11/16 05:49:37;;;;;;;8.77;7.97;;;;;;;;;;4968410;28;20215;-63
2022/11/16 05:52:04;;;;;;;7.63;5.80;;;;;;;;;;4969460;28;20282;-63
2022/11/16 05:54:32;;;;;;;6.70;6.10;;;;;;;;;;4965265;28;20221;-61
2022/11/16 05:56:59;;;;;;;6.77;6.17;;;;;;;;;;4964821;28;20567;-64
2022/11/16 05:59:28;;;;;;;6.83;6.13;;;;;;;;;;4965561;28;20206;-62
2022/11/16 06:01:56;;;;;;;7.50;6.57;;;;;;;;;;4967217;28;20540;-63
2022/11/16 06:04:23;;;;;;;6.67;6.00;;;;;;;;;;4966159;28;20758;-62
2022/11/16 06:06:51;;;;;;;9.03;6.30;;;;;;;;;;4967000;28;20199;-64
2022/11/16 06:09:19;;;;;;;6.67;6.07;;;;;;;;;;4973857;28;20281;-63
2022/11/16 06:11:46;;;;;;;6.90;6.20;;;;;;;;;;4963159;28;20793;-63
2022/11/16 06:14:13;;;;;;;6.63;6.03;;;;;;;;;;4969029;28;20226;-63
2022/11/16 06:16:40;;;;;;;7.57;6.27;;;;;;;;;;4985307;28;20231;-63
2022/11/16 06:19:08;;;;;;;7.27;6.30;;;;;;;;;;4956274;28;21585;-63
2022/11/16 06:21:35;;;;;;;6.07;5.57;;;;;;;;;;4966062;28;20714;-63
2022/11/16 06:24:07;;;;;;;6.03;5.43;;;;;;;;;;4982036;28;20283;-63
2022/11/16 06:26:35;;;;;;;6.20;5.60;;;;;;;;;;4981406;28;20310;-62
2022/11/16 06:29:03;;;;;;;5.70;5.20;;;;;;;;;;4985680;28;20216;-61
2022/11/16 06:31:30;;;;;;;6.10;5.60;;;;;;;;;;4986595;28;20267;-63
2022/11/16 06:33:57;;;;;;;5.90;5.30;;;;;;;;;;4978173;28;20211;-63
2022/11/16 06:36:25;;;;;;;6.80;5.40;;;;;;;;;;4963521;28;20385;-63
2022/11/16 06:38:53;;;;;;;6.30;5.70;;;;;;;;;;4961607;28;20645;-63
2022/11/16 06:41:20;;;;;;;6.47;5.67;;;;;;;;;;4964300;28;20318;-62
2022/11/16 06:43:47;;;;;;;6.70;5.93;;;;;;;;;;4967415;28;20729;-62
2022/11/16 06:46:15;;;;;;;7.80;5.77;;;;;;;;;;4959187;28;20608;-61
2022/11/16 06:48:42;;;;;;;6.50;5.80;;;;;;;;;;4968237;28;20262;-63
2022/11/16 06:51:10;;;;;;;6.73;5.83;;;;;;;;;;4963532;28;20237;-62
2022/11/16 06:53:37;;;;;;;6.43;5.83;;;;;;;;;;4970052;28;20214;-63
2022/11/16 06:56:05;;;;;;;5.97;5.37;;;;;;;;;;4984069;28;21199;-63
2022/11/16 06:58:33;;;;;;;7.27;6.00;;;;;;;;;;4971022;28;20211;-63
2022/11/16 07:01:08;;;;;;;6.03;5.50;;;;;;;;;;4968504;28;20231;-63
2022/11/16 07:03:35;;;;;;;6.70;6.00;;;;;;;;;;4969628;28;20204;-63
2022/11/16 07:06:07;;;;;;;6.17;5.57;;;;;;;;;;4966568;28;20310;-61
2022/11/16 07:08:34;;;;;;;7.40;6.47;;;;;;;;;;4967971;28;20235;-62
2022/11/16 07:11:03;;;;;;;6.57;5.97;;;;;;;;;;4982617;28;20258;-62
2022/11/16 07:13:32;;;;;;;6.47;5.83;;;;;;;;;;4970258;28;20208;-63
2022/11/16 07:16:07;;;;;;;6.53;5.87;;;;;;;;;;4968673;28;20310;-63
2022/11/16 07:18:35;;;;;;;8.13;6.50;;;;;;;;;;4966850;28;20624;-63
2022/11/16 07:21:11;;;;;;;7.63;6.23;;;;;;;;;;4968451;28;20757;-62
2022/11/16 07:23:39;;;;;;;6.50;5.90;;;;;;;;;;4974465;28;20290;-62
2022/11/16 07:26:07;;;;;;;6.73;5.73;;;;;;;;;;4968445;28;20215;-63
2022/11/16 07:28:34;;;;;;;6.03;5.43;;;;;;;;;;4975761;28;20642;-62
2022/11/16 07:31:07;;;;;;;6.07;5.47;;;;;;;;;;4970106;28;20809;-63
2022/11/16 07:33:34;;;;;;;6.33;5.73;;;;;;;;;;4986326;28;20200;-63
2022/11/16 07:36:06;;;;;;;6.50;5.83;;;;;;;;;;4994926;28;20267;-63
2022/11/16 07:38:33;;;;;;;6.83;5.13;;;;;;;;;;4986510;28;20297;-63
2022/11/16 07:41:02;;;;;;;6.03;5.43;;;;;;;;;;4995746;28;20231;-63
2022/11/16 07:43:39;;;;;;;6.60;5.60;;;;;;;;;;4985251;28;20200;-61
2022/11/16 07:46:10;;;;;;;6.20;5.60;;;;;;;;;;4971467;28;20221;-63
2022/11/16 07:48:58;;;;;;;5.77;5.27;;;;;;;;;;4959749;28;20678;-63
2022/11/16 07:51:25;;;;;;;5.83;5.23;;;;;;;;;;4969903;28;20251;-63
2022/11/16 07:53:57;;;;;;;5.27;4.77;;;;;;;;;;4965307;28;20239;-62
2022/11/16 07:56:24;;;;;;;5.70;5.20;;;;;;;;;;4969710;28;20235;-62
2022/11/16 07:58:52;;;;;;;5.33;4.83;;;;;;;;;;4972137;28;20840;-62
2022/11/16 08:01:19;;;;;;;5.07;4.57;;;;;;;;;;4970082;28;20283;-61
2022/11/16 08:03:47;;;;;;;5.53;5.03;;;;;;;;;;4964295;28;20314;-62
2022/11/16 08:06:19;;;;;;;5.10;4.33;;;;;;;;;;4967995;28;20210;-62
2022/11/16 08:08:47;;;;;;;4.57;4.17;;;;;;;;;;4961534;28;20328;-62
2022/11/16 08:11:24;;;;;;;6.43;3.60;;;;;;;;;;4962857;28;20235;-62
2022/11/16 08:13:51;;;;;;;5.40;3.67;;;;;;;;;;4958367;28;20298;-62
2022/11/16 08:16:20;;;;;;;4.17;3.77;;;;;;;;;;4959142;28;20242;-62
2022/11/16 08:18:47;;;;;;;4.40;4.00;;;;;;;;;;4966771;28;20335;-63
2022/11/16 08:21:15;;;;;;;5.07;3.80;;;;;;;;;;4967290;28;21012;-63
2022/11/16 08:23:46;;;;;;;3.53;3.23;;;;;;;;;;4984102;28;20409;-63
2022/11/16 08:26:18;;;;;;;3.60;3.30;;;;;;;;;;4982586;28;20215;-63
2022/11/16 08:28:49;;;;;;;7.63;3.47;;;;;;;;;;4984241;28;20361;-63
2022/11/16 08:31:19;;;;;;;4.97;3.37;;;;;;;;;;4983238;28;20227;-62
2022/11/16 08:33:46;;;;;;;2.90;2.50;;;;;;;;;;4974688;28;20666;-61
2022/11/16 08:36:17;;;;;;;2.60;2.37;;;;;;;;;;4970390;28;20235;-63
2022/11/16 08:38:45;;;;;;;2.23;2.03;;;;;;;;;;4968551;28;22273;-64
2022/11/16 08:41:13;;;;;;;3.47;2.30;;;;;;;;;;4961643;28;20234;-63
2022/11/16 08:43:40;;;;;;;2.30;1.93;;;;;;;;;;4971495;28;20651;-64
2022/11/16 08:46:08;;;;;;;2.30;2.10;;;;;;;;;;4967941;28;20426;-62
2022/11/16 08:48:36;;;;;;;1.80;1.67;;;;;;;;;;4967225;28;20285;-64
2022/11/16 08:51:08;;;;;;;3.93;1.87;;;;;;;;;;4970839;28;20232;-64
2022/11/16 08:53:46;;;;;;;1.73;1.63;;;;;;;;;;4972511;28;20203;-63
2022/11/16 08:56:15;;;;;;;1.77;1.60;;;;;;;;;;4956314;28;20239;-63
2022/11/16 08:58:45;;;;;;;2.03;1.70;;;;;;;;;;4965394;28;20725;-64
2022/11/16 09:01:13;;;;;;;1.47;1.37;;;;;;;;;;4973431;28;20220;-63
2022/11/16 09:03:41;;;;;;;1.50;1.07;;;;;;;;;;4971450;28;20218;-62
2022/11/16 09:06:09;;;;;;;2.67;1.40;;;;;;;;;;4988845;28;20943;-63
2022/11/16 09:08:37;;;;;;;3.10;1.10;;;;;;;;;;4967767;28;20747;-62
2022/11/16 09:11:06;;;;;;;2.90;1.43;;;;;;;;;;4971531;28;20310;-63
2022/11/16 09:13:33;;;;;;;4.27;1.63;;;;;;;;;;4970227;28;20217;-63
2022/11/16 09:16:01;;;;;;;3.00;1.40;;;;;;;;;;4991374;28;20674;-63
2022/11/16 09:18:29;;;;;;;2.30;1.30;;;;;;;;;;4990290;28;20211;-63
2022/11/16 09:20:57;;;;;;;2.97;1.30;;;;;;;;;;4969260;28;20233;-63
2022/11/16 09:23:24;;;;;;;1.60;1.23;;;;;;;;;;4975893;28;20293;-63
2022/11/16 09:25:53;;;;;;;2.50;1.80;;;;;;;;;;4971012;28;20204;-63
2022/11/16 09:28:21;;;;;;;5.80;3.17;;;;;;;;;;4969666;28;20215;-63
2022/11/16 09:30:50;;;;;;;2.83;2.27;;;;;;;;;;4967347;28;20278;-63
2022/11/16 09:33:18;;;;;;;8.83;3.70;;;;;;;;;;4976659;28;20291;-64
2022/11/16 09:35:45;;;;;;;1.50;1.03;;;;;;;;;;4975930;28;20763;-63
2022/11/16 09:38:13;;;;;;;2.47;1.00;;;;;;;;;;4973602;28;20251;-64
2022/11/16 09:40:56;;;;;;;2.07;1.07;;;;;;;;;;4972749;28;20727;-63
2022/11/16 09:43:33;;;;;;;3.37;1.00;;;;;;;;;;4973075;28;20311;-63
2022/11/16 09:46:05;;;;;;;2.27;1.37;;;;;;;;;;4972005;28;20689;-63
2022/11/16 09:48:35;;;;;;;1.90;1.07;;;;;;;;;;4990795;28;20242;-63
2022/11/16 09:51:07;;;;;;;1.90;0.90;;;;;;;;;;4967065;28;20237;-63
2022/11/16 09:53:40;;;;;;;1.37;0.83;;;;;;;;;;4969660;28;20211;-63
2022/11/16 09:56:07;;;;;;;1.20;1.10;;;;;;;;;;4970016;28;20299;-63
2022/11/16 09:58:54;;;;;;;4.07;1.10;;;;;;;;;;4976472;28;20749;-64
2022/11/16 10:01:24;;;;;;;3.70;0.97;;;;;;;;;;4982136;28;20717;-62
2022/11/16 10:03:55;;;;;;;1.10;0.70;;;;;;;;;;4970852;28;20222;-62
2022/11/16 10:06:23;;;;;;;1.63;1.00;;;;;;;;;;4990883;28;20286;-64
2022/11/16 10:08:51;;;;;;;1.57;0.83;;;;;;;;;;4968358;28;20207;-63
2022/11/16 10:11:21;;;;;;;2.97;1.00;;;;;;;;;;4964001;28;20223;-63
2022/11/16 10:13:49;;;;;;;2.37;1.20;;;;;;;;;;4966895;28;20695;-63
2022/11/16 10:16:30;;;;;;;2.07;1.10;;;;;;;;;;4972827;28;20245;-63
2022/11/16 10:19:02;;;;;;;2.27;1.00;;;;;;;;;;4965103;28;20257;-63
2022/11/16 10:21:36;;;;;;;1.17;0.80;;;;;;;;;;4970091;28;20809;-63
2022/11/16 10:24:22;;;;;;;4.50;0.90;;;;;;;;;;4985296;28;20222;-63
2022/11/16 10:26:58;;;;;;;3.20;1.07;;;;;;;;;;4982880;28;20211;-63
2022/11/16 10:29:32;;;;;;;2.63;1.13;;;;;;;;;;4983438;28;20207;-63
2022/11/16 10:32:12;;;;;;;1.97;0.80;;;;;;;;;;4996078;28;20751;-63
2022/11/16 10:34:53;;;;;;;2.07;0.70;;;;;;;;;;4967154;28;20211;-62
2022/11/16 10:37:21;;;;;;;2.93;0.93;;;;;;;;;;4970948;28;20651;-62
2022/11/16 10:39:51;;;;;;;2.20;0.70;;;;;;;;;;4963049;28;20295;-64
2022/11/16 10:42:32;;;;;;;1.17;0.83;;;;;;;;;;4970410;28;20227;-63
2022/11/16 10:45:25;;;;;;;1.30;0.83;;;;;;;;;;4970620;28;20258;-63
2022/11/16 10:48:24;;;;;;;2.00;0.90;;;;;;;;;;4982671;28;20300;-63
2022/11/16 10:50:52;;;;;;;1.57;0.70;;;;;;;;;;4905654;28;20311;-63
2022/11/16 10:53:27;;;;;;;1.63;0.90;;;;;;;;;;4965786;28;20293;-64
2022/11/16 10:56:12;;;;;;;3.67;1.13;;;;;;;;;;4968929;28;20207;-63
2022/11/16 10:58:51;;;;;;;0.80;0.80;;;;;;;;;;4971460;28;20220;-63
2022/11/16 11:01:48;;;;;;;2.27;0.90;;;;;;;;;;4967474;28;20407;-63
2022/11/16 11:04:21;;;;;;;2.67;0.90;;;;;;;;;;4972055;28;20195;-63
2022/11/16 11:06:52;;;;;;;1.77;0.80;;;;;;;;;;4969990;28;20474;-63
2022/11/16 11:09:22;;;;;;;3.30;1.00;;;;;;;;;;4966505;28;20203;-62
2022/11/16 11:15:04;;;;;;;2.10;0.80;;;;;;;;;;4982724;28;20679;-63
2022/11/16 11:17:34;;;;;;;2.67;1.13;;;;;;;;;;4967578;28;21092;-61
2022/11/16 11:20:03;;;;;;;3.20;1.00;;;;;;;;;;4967888;28;20203;-61
2022/11/16 11:22:31;;;;;;;4.47;2.37;;;;;;;;;;4968383;28;20570;-63
2022/11/16 11:25:02;;;;;;;3.43;1.17;;;;;;;;;;4974555;28;20747;-62
2022/11/16 11:27:33;;;;;;;6.43;1.57;;;;;;;;;;4961520;28;20317;-62
2022/11/16 11:30:00;;;;;;;7.83;1.07;;;;;;;;;;4950650;28;20304;-63
2022/11/16 11:32:31;;;;;;;5.03;0.90;;;;;;;;;;4977635;28;20321;-61
2022/11/16 11:34:59;;;;;;;4.87;0.87;;;;;;;;;;4984516;28;20239;-63
2022/11/16 11:37:30;;;;;;;1.63;1.00;;;;;;;;;;4985071;28;22026;-63
2022/11/16 11:40:06;;;;;;;4.87;1.00;;;;;;;;;;4984418;28;20199;-63
2022/11/16 11:42:34;;;;;;;4.63;1.30;;;;;;;;;;4985177;28;20227;-64
2022/11/16 11:45:05;;;;;;;3.20;0.93;;;;;;;;;;4967124;28;20598;-63
2022/11/16 11:47:35;;;;;;;2.20;0.83;;;;;;;;;;4998887;28;20246;-63
2022/11/16 11:50:32;;;;;;;3.17;0.90;;;;;;;;;;4986172;28;20214;-63
2022/11/16 11:53:18;;;;;;;2.67;1.10;;;;;;;;;;4985730;28;20266;-63
2022/11/16 11:55:45;;;;;;;3.53;0.97;;;;;;;;;;4986066;28;20303;-63
2022/11/16 11:58:18;;;;;;;3.17;1.10;;;;;;;;;;4977188;28;20260;-62
2022/11/16 12:00:45;;;;;;;3.50;1.03;;;;;;;;;;4967305;28;20623;-63
2022/11/16 12:03:31;;;;;;;3.33;1.10;;;;;;;;;;4972521;28;20205;-62
2022/11/16 12:06:14;;;;;;;2.53;1.00;;;;;;;;;;4972136;28;20603;-63
2022/11/16 12:08:50;;;;;;;5.23;1.90;;;;;;;;;;4968520;28;20987;-63
2022/11/16 12:11:27;;;;;;;4.13;1.00;;;;;;;;;;4966108;28;20322;-63
2022/11/16 12:13:54;;;;;;;3.10;1.23;;;;;;;;;;4972881;28;20298;-63
2022/11/16 12:16:26;;;;;;;3.23;0.93;;;;;;;;;;4971452;28;20332;-63
2022/11/16 12:18:59;;;;;;;3.30;1.00;;;;;;;;;;4969632;28;20319;-63
2022/11/16 12:21:46;;;;;;;1.70;0.93;;;;;;;;;;4985691;28;20328;-63
2022/11/16 12:24:16;;;;;;;2.37;1.00;;;;;;;;;;4986518;28;20202;-63
2022/11/16 12:26:55;;;;;;;2.30;0.80;;;;;;;;;;4983486;28;20204;-63
2022/11/16 12:29:36;;;;;;;3.53;1.02;;;;;;;;;;4993270;28;20239;-63
2022/11/16 12:32:06;;;;;;;2.45;0.93;;;;;;;;;;4990935;28;20306;-62
2022/11/16 12:34:52;;;;;;;2.00;1.00;;;;;;;;;;4991670;28;20204;-62
2022/11/16 12:37:22;;;;;;;2.88;1.02;;;;;;;;;;4974600;28;20227;-63
2022/11/16 12:39:59;;;;;;;3.20;1.00;;;;;;;;;;4970471;28;20214;-63
2022/11/16 12:42:32;;;;;;;5.50;2.67;;;;;;;;;;4977653;28;20632;-63
2022/11/16 12:45:22;;;;;;;2.00;0.90;;;;;;;;;;4972233;28;20244;-63
2022/11/16 12:47:56;;;;;;;3.77;1.13;;;;;;;;;;4972525;28;21232;-63
2022/11/16 12:50:47;;;;;;;1.70;0.80;;;;;;;;;;4972008;28;20303;-63
2022/11/16 12:53:21;;;;;;;2.50;0.97;;;;;;;;;;4982222;28;20263;-62
2022/11/16 12:55:55;;;;;;;2.30;0.90;;;;;;;;;;4974498;28;20254;-62
2022/11/16 12:58:32;;;;;;;3.30;1.00;;;;;;;;;;4970685;28;20223;-63
2022/11/16 13:01:02;;;;;;;7.50;1.10;;;;;;;;;;4973598;28;20744;-63
2022/11/16 13:03:50;;;;;;;1.50;0.80;;;;;;;;;;4971101;28;20688;-63
2022/11/16 13:06:20;;;;;;;2.13;0.80;;;;;;;;;;4989970;28;20207;-63
2022/11/16 13:08:47;;;;;;;2.93;0.80;;;;;;;;;;4989313;28;20705;-63
2022/11/16 13:11:18;;;;;;;2.57;0.90;;;;;;;;;;4970798;28;20231;-63
2022/11/16 13:13:47;;;;;;;2.30;1.17;;;;;;;;;;4972960;28;20243;-64
2022/11/16 13:16:20;;;;;;;2.13;0.83;;;;;;;;;;4970432;28;20736;-61
2022/11/16 13:18:48;;;;;;;3.77;1.23;;;;;;;;;;4972378;28;20323;-62
2022/11/16 13:21:21;;;;;;;1.90;0.80;;;;;;;;;;4987339;28;20322;-61
2022/11/16 13:24:06;;;;;;;22.23;9.63;;;;;;;;;;4969678;28;20343;-61
2022/11/16 13:26:52;;;;;;;2.70;1.40;;;;;;;;;;4974741;28;20645;-61
2022/11/16 13:29:20;;;;;;;1.97;1.10;;;;;;;;;;4972252;28;20743;-63
2022/11/16 13:32:02;;;;;;;2.63;0.80;;;;;;;;;;4972441;28;20362;-63
2022/11/16 13:34:34;;;;;;;1.60;0.80;;;;;;;;;;4970306;28;20306;-63
2022/11/16 13:37:01;;;;;;;3.27;0.73;;;;;;;;;;4972712;28;20212;-63
2022/11/16 13:39:47;;;;;;;2.43;0.97;;;;;;;;;;4965852;28;20332;-62
2022/11/16 13:42:15;;;;;;;1.85;0.82;;;;;;;;;;4967350;28;20263;-62
2022/11/16 13:44:43;;;;;;;2.27;0.97;;;;;;;;;;4971357;28;20299;-63
2022/11/16 13:47:25;;;;;;;2.47;1.53;;;;;;;;;;4969655;28;20266;-62
2022/11/16 13:50:00;;;;;;;4.40;2.43;;;;;;;;;;4987311;28;21003;-63
2022/11/16 13:52:41;;;;;;;2.55;0.98;;;;;;;;;;4988703;28;20639;-62
2022/11/16 13:55:30;;;;;;;4.80;2.03;;;;;;;;;;4987684;28;20386;-63
2022/11/16 13:57:58;;;;;;;1.43;1.00;;;;;;;;;;4973861;28;20329;-63
2022/11/16 14:00:32;;;;;;;2.47;1.00;;;;;;;;;;4970873;28;20624;-63
2022/11/16 14:03:15;;;;;;;5.10;1.33;;;;;;;;;;4970357;28;20362;-63
2022/11/16 14:05:44;;;;;;;1.98;0.77;;;;;;;;;;4970995;28;20393;-63
2022/11/16 14:08:24;;;;;;;2.53;0.80;;;;;;;;;;4973953;28;20227;-63
2022/11/16 14:10:52;;;;;;;1.95;0.80;;;;;;;;;;4972018;28;20940;-63
2022/11/16 14:13:34;;;;;;;1.65;0.80;;;;;;;;;;4967518;28;20610;-63
2022/11/16 14:16:15;;;;;;;2.60;0.80;;;;;;;;;;4972793;28;20216;-63
2022/11/16 14:18:43;;;;;;;1.15;0.90;;;;;;;;;;4970872;28;20231;-63
2022/11/16 14:21:31;;;;;;;1.63;1.13;;;;;;;;;;4969683;28;20237;-63
2022/11/16 14:24:04;;;;;;;1.13;0.70;;;;;;;;;;4986625;28;20332;-63
2022/11/16 14:26:50;;;;;;;1.90;0.90;;;;;;;;;;4987062;28;20228;-63
2022/11/16 14:29:33;;;;;;;2.40;0.90;;;;;;;;;;4988803;28;20220;-63
2022/11/16 14:32:01;;;;;;;2.73;0.80;;;;;;;;;;4977269;28;20247;-63
2022/11/16 14:34:39;;;;;;;3.43;1.40;;;;;;;;;;4970478;28;20307;-63
2022/11/16 14:37:11;;;;;;;2.53;1.07;;;;;;;;;;4968901;28;20310;-63
2022/11/16 14:39:42;;;;;;;2.47;1.00;;;;;;;;;;4975541;28;20326;-63
2022/11/16 14:42:27;;;;;;;4.93;1.20;;;;;;;;;;4966473;28;20936;-63
2022/11/16 14:45:02;;;;;;;2.53;0.70;;;;;;;;;;4967098;28;20215;-64
2022/11/16 14:47:32;;;;;;;3.30;1.27;;;;;;;;;;4972203;28;20619;-63
2022/11/16 14:49:59;;;;;;;2.13;1.00;;;;;;;;;;4965794;28;20302;-64
2022/11/16 14:52:52;;;;;;;2.63;1.00;;;;;;;;;;4972791;28;20246;-62
2022/11/16 14:55:21;;;;;;;4.03;1.15;;;;;;;;;;4974376;28;20210;-63
2022/11/16 14:57:49;;;;;;;1.90;1.20;;;;;;;;;;4968403;28;20227;-63
2022/11/16 15:00:16;;;;;;;2.08;1.10;;;;;;;;;;4970076;28;20761;-62
2022/11/16 15:02:45;;;;;;;2.27;1.20;;;;;;;;;;4965268;28;21229;-62
2022/11/16 15:05:21;;;;;;;2.17;1.23;;;;;;;;;;4966787;28;20382;-62
2022/11/16 15:07:53;;;;;;;3.63;1.27;;;;;;;;;;4977012;28;20208;-63
2022/11/16 15:10:25;;;;;;;3.23;1.03;;;;;;;;;;4981441;28;20206;-64
2022/11/16 15:12:53;;;;;;;2.75;1.50;;;;;;;;;;4963079;28;20466;-63
2022/11/16 15:15:26;;;;;;;4.10;1.20;;;;;;;;;;4966337;28;20326;-62
2022/11/16 15:17:59;;;;;;;1.58;1.05;;;;;;;;;;4971212;28;20338;-63
2022/11/16 15:20:29;;;;;;;2.57;1.30;;;;;;;;;;4969607;28;20672;-63
2022/11/16 15:23:00;;;;;;;3.50;1.50;;;;;;;;;;4968744;28;20223;-63
2022/11/16 15:25:27;;;;;;;4.17;1.37;;;;;;;;;;4971923;28;20211;-62
2022/11/16 15:27:55;;;;;;;4.27;1.47;;;;;;;;;;4971975;28;20204;-62
2022/11/16 15:30:33;;;;;;;4.93;1.77;;;;;;;;;;4990059;28;20232;-63
2022/11/16 15:33:08;;;;;;;4.23;1.40;;;;;;;;;;4991666;28;20262;-62
2022/11/16 15:35:37;;;;;;;2.87;1.87;;;;;;;;;;4979828;28;20722;-63
2022/11/16 15:38:04;;;;;;;4.70;2.10;;;;;;;;;;4987486;28;20228;-63
2022/11/16 15:40:32;;;;;;;6.90;1.57;;;;;;;;;;4990743;28;20271;-63
2022/11/16 15:43:02;;;;;;;5.93;1.60;;;;;;;;;;4980528;28;20729;-63
2022/11/16 15:45:29;;;;;;;5.70;2.10;;;;;;;;;;4968521;28;20856;-62
2022/11/16 15:47:59;;;;;;;10.10;3.90;;;;;;;;;;4977462;28;20200;-61